createdAt,value
2019-02-19T00:01:33.716Z,5.33
2019-02-19T00:04:35.388Z,4.87
2019-02-19T00:07:36.894Z,6.00
2019-02-19T00:10:38.400Z,5.72
2019-02-19T00:13:39.929Z,5.28
2019-02-19T00:16:41.421Z,5.37
2019-02-19T00:19:43.359Z,5.47
2019-02-19T00:22:44.960Z,5.97
2019-02-19T00:25:46.567Z,5.05
2019-02-19T00:28:48.020Z,5.20
2019-02-19T00:31:51.094Z,5.40
2019-02-19T00:34:52.587Z,5.08
2019-02-19T00:37:54.089Z,5.12
2019-02-19T00:40:55.840Z,5.60
2019-02-19T00:43:57.626Z,5.47
2019-02-19T00:47:00.124Z,4.87
2019-02-19T00:50:01.663Z,5.55
2019-02-19T00:53:03.167Z,5.50
2019-02-19T00:56:04.682Z,5.00
2019-02-19T00:59:06.217Z,5.10
2019-02-19T01:02:07.904Z,5.47
2019-02-19T01:05:09.522Z,5.42
2019-02-19T01:08:11.181Z,4.50
2019-02-19T01:11:12.633Z,5.35
2019-02-19T01:14:14.460Z,5.08
2019-02-19T01:17:16.026Z,4.72
2019-02-19T01:20:17.578Z,4.95
2019-02-19T01:23:19.202Z,4.87
2019-02-19T01:26:21.185Z,5.45
2019-02-19T01:29:22.655Z,4.87
2019-02-19T01:32:24.143Z,5.12
2019-02-19T01:35:25.828Z,4.97
2019-02-19T01:38:27.219Z,5.25
2019-02-19T01:41:28.668Z,4.62
2019-02-19T01:44:30.719Z,4.67
2019-02-19T01:47:32.190Z,4.65
2019-02-19T01:50:33.692Z,5.28
2019-02-19T01:53:35.158Z,4.43
2019-02-19T01:56:36.609Z,4.15
2019-02-19T01:59:38.104Z,4.80
2019-02-19T02:02:39.634Z,4.60
2019-02-19T02:05:42.268Z,4.22
2019-02-19T02:08:43.868Z,4.95
2019-02-19T02:11:45.384Z,5.30
2019-02-19T02:14:46.850Z,4.90
2019-02-19T02:17:48.421Z,4.78
2019-02-19T02:20:49.852Z,5.00
2019-02-19T02:23:51.317Z,4.65
2019-02-19T02:26:52.776Z,4.60
2019-02-19T02:29:54.230Z,4.35
2019-02-19T02:32:55.970Z,4.40
2019-02-19T02:35:57.490Z,4.70
2019-02-19T02:38:59.248Z,4.87
2019-02-19T02:42:00.661Z,4.08
2019-02-19T02:45:02.339Z,5.05
2019-02-19T02:48:04.055Z,4.58
2019-02-19T02:51:05.702Z,4.67
2019-02-19T02:54:07.133Z,5.10
2019-02-19T02:57:08.552Z,4.45
2019-02-19T03:00:11.949Z,4.30
2019-02-19T03:03:13.419Z,4.72
2019-02-19T03:06:21.024Z,4.47
2019-02-19T03:09:22.735Z,4.50
2019-02-19T03:12:24.671Z,4.70
2019-02-19T03:15:26.519Z,4.87
2019-02-19T03:18:28.049Z,4.40
2019-02-19T03:21:29.607Z,4.60
2019-02-19T03:24:30.980Z,3.97
2019-02-19T03:27:32.511Z,4.33
2019-02-19T03:30:33.950Z,4.10
2019-02-19T03:33:35.492Z,4.50
2019-02-19T03:36:36.919Z,4.12
2019-02-19T03:39:38.880Z,4.58
2019-02-19T03:42:40.727Z,4.15
2019-02-19T03:45:42.405Z,4.45
2019-02-19T03:48:43.949Z,4.40
2019-02-19T03:51:45.426Z,4.08
2019-02-19T03:54:46.952Z,4.60
2019-02-19T03:57:48.568Z,4.03
2019-02-19T04:00:50.046Z,3.98
2019-02-19T04:03:51.492Z,4.20
2019-02-19T04:06:53.331Z,4.17
2019-02-19T04:09:54.803Z,3.87
2019-02-19T04:12:56.519Z,4.08
2019-02-19T04:15:58.007Z,4.33
2019-02-19T04:18:59.513Z,3.90
2019-02-19T04:22:00.950Z,3.77
2019-02-19T04:25:02.764Z,3.90
2019-02-19T04:28:06.507Z,3.80
2019-02-19T04:31:07.941Z,4.17
2019-02-19T04:34:09.722Z,3.92
2019-02-19T04:37:11.336Z,3.95
2019-02-19T04:40:12.805Z,4.00
2019-02-19T04:43:14.469Z,4.30
2019-02-19T04:46:15.871Z,3.87
2019-02-19T04:49:17.395Z,3.70
2019-02-19T04:52:18.828Z,3.90
2019-02-19T04:55:20.282Z,4.23
2019-02-19T04:58:21.735Z,3.90
2019-02-19T05:01:23.458Z,3.72
2019-02-19T05:04:24.983Z,3.60
2019-02-19T05:07:26.505Z,4.37
2019-02-19T05:10:27.962Z,4.22
2019-02-19T05:13:29.439Z,4.15
2019-02-19T05:16:40.218Z,3.80
2019-02-19T05:19:34.110Z,3.93
2019-02-19T05:22:35.566Z,3.55
2019-02-19T05:25:37.054Z,3.97
2019-02-19T05:28:38.503Z,3.20
2019-02-19T05:31:39.967Z,3.90
2019-02-19T05:34:41.514Z,4.00
2019-02-19T05:37:42.995Z,3.67
2019-02-19T05:40:45.168Z,4.03
2019-02-19T05:43:46.605Z,4.00
2019-02-19T05:46:50.157Z,4.03
2019-02-19T05:49:51.386Z,3.62
2019-02-19T05:52:52.832Z,4.13
2019-02-19T05:55:54.344Z,4.23
2019-02-19T05:58:56.213Z,3.85
2019-02-19T06:01:57.653Z,3.83
2019-02-19T06:04:59.275Z,4.40
2019-02-19T06:08:00.748Z,3.77
2019-02-19T06:11:02.244Z,3.93
2019-02-19T06:14:03.748Z,4.03
2019-02-19T06:17:05.668Z,3.53
2019-02-19T06:20:08.637Z,4.03
2019-02-19T06:23:10.444Z,3.80
2019-02-19T06:26:11.973Z,4.00
2019-02-19T06:29:13.467Z,3.60
2019-02-19T06:32:14.918Z,3.60
2019-02-19T06:35:16.557Z,4.20
2019-02-19T06:38:18.431Z,4.05
2019-02-19T06:41:21.017Z,3.75
2019-02-19T06:44:22.582Z,3.60
2019-02-19T06:47:24.063Z,4.00
2019-02-19T06:50:25.926Z,3.92
2019-02-19T06:53:27.438Z,4.37
2019-02-19T06:56:28.953Z,3.67
2019-02-19T06:59:30.496Z,3.77
2019-02-19T07:02:45.295Z,4.00
2019-02-19T07:05:46.732Z,4.07
2019-02-19T07:08:48.264Z,3.40
2019-02-19T07:11:49.749Z,3.83
2019-02-19T07:14:51.316Z,4.10
2019-02-19T07:17:52.755Z,4.33
2019-02-19T07:20:54.245Z,3.73
2019-02-19T07:24:04.176Z,3.80
2019-02-19T07:27:00.414Z,3.55
2019-02-19T07:30:01.973Z,4.15
2019-02-19T07:33:03.577Z,4.00
2019-02-19T07:36:05.031Z,4.10
2019-02-19T07:39:07.917Z,3.50
2019-02-19T07:42:09.395Z,3.60
2019-02-19T07:45:11.050Z,3.93
2019-02-19T07:48:12.543Z,4.00
2019-02-19T07:51:15.058Z,3.63
2019-02-19T07:54:16.521Z,3.30
2019-02-19T07:57:18.384Z,4.13
2019-02-19T08:00:20.038Z,3.60
2019-02-19T08:03:21.543Z,3.58
2019-02-19T08:06:23.140Z,3.47
2019-02-19T08:09:25.092Z,3.90
2019-02-19T08:12:27.581Z,4.00
2019-02-19T08:15:29.194Z,3.75
2019-02-19T08:18:31.204Z,3.40
2019-02-19T08:21:34.067Z,3.40
2019-02-19T08:24:35.639Z,3.63
2019-02-19T08:27:37.379Z,3.63
2019-02-19T08:30:39.018Z,3.92
2019-02-19T08:33:40.584Z,3.87
2019-02-19T08:36:42.596Z,4.08
2019-02-19T08:39:44.741Z,3.90
2019-02-19T08:42:46.282Z,3.80
2019-02-19T08:45:47.898Z,3.43
2019-02-19T08:48:49.519Z,3.50
2019-02-19T08:51:56.074Z,4.22
2019-02-19T08:54:54.351Z,3.87
2019-02-19T08:57:55.975Z,3.75
2019-02-19T09:00:57.785Z,4.20
2019-02-19T09:03:59.394Z,3.42
2019-02-19T09:07:01.063Z,3.70
2019-02-19T09:10:02.910Z,4.12
2019-02-19T09:13:04.478Z,3.75
2019-02-19T09:16:07.186Z,3.60
2019-02-19T09:19:09.203Z,3.70
2019-02-19T09:22:10.937Z,4.40
2019-02-19T09:25:12.591Z,3.93
2019-02-19T09:28:14.328Z,3.75
2019-02-19T09:31:15.832Z,3.47
2019-02-19T09:34:17.335Z,3.90
2019-02-19T09:37:18.952Z,3.80
2019-02-19T09:40:20.852Z,3.80
2019-02-19T09:43:22.480Z,4.33
2019-02-19T09:46:23.994Z,3.77
2019-02-19T09:49:25.505Z,3.77
2019-02-19T09:52:27.439Z,4.17
2019-02-19T09:55:30.364Z,3.77
2019-02-19T09:58:32.396Z,3.90
2019-02-19T10:01:34.123Z,3.70
2019-02-19T10:04:35.752Z,3.83
2019-02-19T10:07:37.374Z,3.75
2019-02-19T10:10:38.892Z,4.13
2019-02-19T10:13:40.492Z,3.67
2019-02-19T10:16:42.288Z,4.20
2019-02-19T10:19:44.140Z,3.80
2019-02-19T10:22:46.585Z,3.70
2019-02-19T10:25:48.208Z,3.70
2019-02-19T10:28:49.775Z,3.83
2019-02-19T10:31:51.569Z,3.65
2019-02-19T10:34:53.121Z,3.80
2019-02-19T10:37:54.756Z,3.50
2019-02-19T10:40:56.329Z,3.42
2019-02-19T10:43:58.120Z,3.65
2019-02-19T10:46:59.641Z,3.50
2019-02-19T10:50:01.215Z,3.80
2019-02-19T10:53:03.256Z,3.60
2019-02-19T10:56:04.930Z,3.60
2019-02-19T10:59:06.511Z,3.30
2019-02-19T11:02:08.125Z,3.75
2019-02-19T11:05:40.130Z,4.40
2019-02-19T11:08:41.695Z,3.75
2019-02-19T11:11:43.443Z,3.77
2019-02-19T11:14:45.076Z,4.47
2019-02-19T11:17:46.865Z,3.60
2019-02-19T11:20:48.492Z,3.80
2019-02-19T11:23:50.133Z,3.87
2019-02-19T11:26:52.130Z,3.67
2019-02-19T11:29:53.865Z,3.30
2019-02-19T11:32:55.945Z,3.55
2019-02-19T11:35:57.513Z,3.55
2019-02-19T11:38:59.159Z,3.45
2019-02-19T11:42:00.653Z,3.62
2019-02-19T11:45:02.441Z,3.58
2019-02-19T11:48:04.525Z,3.37
2019-02-19T11:51:06.253Z,3.62
2019-02-19T11:54:07.910Z,3.75
2019-02-19T11:57:09.356Z,3.10
2019-02-19T12:00:15.363Z,3.37
2019-02-19T12:03:17.801Z,3.77
2019-02-19T12:06:19.322Z,2.85
2019-02-19T12:09:20.800Z,3.55
2019-02-19T12:12:22.421Z,3.50
2019-02-19T12:15:23.885Z,3.60
2019-02-19T12:18:26.015Z,3.43
2019-02-19T12:21:27.518Z,3.58
2019-02-19T12:24:29.052Z,3.80
2019-02-19T12:27:30.917Z,3.15
2019-02-19T12:30:32.454Z,3.90
2019-02-19T12:33:34.339Z,3.67
2019-02-19T12:36:36.339Z,3.83
2019-02-19T12:39:37.848Z,3.33
2019-02-19T12:42:39.428Z,3.67
2019-02-19T12:45:40.886Z,3.00
2019-02-19T12:48:42.682Z,3.25
2019-02-19T12:51:44.488Z,3.80
2019-02-19T12:54:46.512Z,3.25
2019-02-19T12:57:49.742Z,3.85
2019-02-19T13:00:52.625Z,3.27
2019-02-19T13:03:55.041Z,3.60
2019-02-19T13:06:58.523Z,3.67
2019-02-19T13:10:00.961Z,3.25
2019-02-19T13:13:02.808Z,3.20
2019-02-19T13:16:05.416Z,3.33
2019-02-19T13:19:07.183Z,3.27
2019-02-19T13:22:10.397Z,3.20
2019-02-19T13:25:12.508Z,3.10
2019-02-19T13:28:14.310Z,3.02
2019-02-19T13:31:16.172Z,3.05
2019-02-19T13:34:17.777Z,3.60
2019-02-19T13:37:20.823Z,3.87
2019-02-19T13:40:22.864Z,3.17
2019-02-19T13:43:31.164Z,3.33
2019-02-19T13:46:33.694Z,3.67
2019-02-19T13:49:47.445Z,3.30
2019-02-19T13:53:00.567Z,4.05
2019-02-19T13:56:03.544Z,3.90
2019-02-19T13:59:08.594Z,3.10
2019-02-19T14:02:10.425Z,3.70
2019-02-19T14:05:12.107Z,3.17
2019-02-19T14:08:17.183Z,3.33
2019-02-19T14:11:20.635Z,3.87
2019-02-19T14:14:50.988Z,4.25
2019-02-19T14:17:54.751Z,3.35
2019-02-19T14:31:58.385Z,3.30
2019-02-19T14:35:34.776Z,3.22
2019-02-19T14:38:54.897Z,3.52
2019-02-19T14:42:19.522Z,3.83
2019-02-19T14:45:43.304Z,3.42
2019-02-19T14:49:15.680Z,4.08
2019-02-19T14:52:50.503Z,3.70
2019-02-19T14:56:10.228Z,3.45
2019-02-19T14:59:31.594Z,3.27
2019-02-19T15:02:51.903Z,4.15
2019-02-19T15:06:18.282Z,4.05
2019-02-19T15:09:29.297Z,3.65
2019-02-19T15:12:59.086Z,4.12
2019-02-19T15:16:23.266Z,3.45
2019-02-19T15:19:44.324Z,4.20
2019-02-19T15:23:11.251Z,4.42
2019-02-19T15:26:20.513Z,4.10
2019-02-19T15:29:44.082Z,4.35
2019-02-19T15:33:12.502Z,4.33
2019-02-19T15:36:49.063Z,4.47
2019-02-19T15:40:10.356Z,4.95
2019-02-19T15:43:30.118Z,4.75
2019-02-19T15:46:57.439Z,4.47
2019-02-19T15:50:16.491Z,4.77
2019-02-19T15:53:27.390Z,4.67
2019-02-19T15:56:55.193Z,4.40
2019-02-19T16:00:17.291Z,5.10
2019-02-19T16:03:35.922Z,5.08
2019-02-19T16:06:59.739Z,4.83
2019-02-19T16:10:20.577Z,4.95
2019-02-19T16:13:42.287Z,5.72
2019-02-19T16:17:09.085Z,4.28
2019-02-19T16:20:33.328Z,4.78
2019-02-19T16:24:00.514Z,4.50
2019-02-19T16:27:16.362Z,5.20
2019-02-19T16:30:49.548Z,5.00
2019-02-19T16:34:16.128Z,4.65
2019-02-19T16:37:36.801Z,5.58
2019-02-19T16:40:48.418Z,5.25
2019-02-19T16:44:09.096Z,5.28
2019-02-19T16:47:35.645Z,5.17
2019-02-19T16:50:55.187Z,4.80
2019-02-19T16:54:14.793Z,4.83
2019-02-19T16:57:41.376Z,5.28
2019-02-19T17:00:53.950Z,5.47
2019-02-19T17:04:14.952Z,5.22
2019-02-19T17:07:36.996Z,4.97
2019-02-19T17:10:57.894Z,6.00
2019-02-19T17:14:18.804Z,5.08
2019-02-19T17:17:49.153Z,5.45
2019-02-19T17:21:09.507Z,5.33
2019-02-19T17:24:36.520Z,5.87
2019-02-19T17:27:49.339Z,5.43
2019-02-19T17:31:09.147Z,5.47
2019-02-19T17:34:29.562Z,5.67
2019-02-19T17:37:53.002Z,5.80
2019-02-19T17:41:08.197Z,5.20
2019-02-19T17:44:25.847Z,5.85
2019-02-19T17:47:46.707Z,5.50
2019-02-19T17:51:19.614Z,5.40
2019-02-19T17:54:53.199Z,6.05
2019-02-19T17:58:11.067Z,5.07
2019-02-19T18:01:29.039Z,5.37
2019-02-19T18:04:40.779Z,5.20
2019-02-19T18:08:07.598Z,5.40
2019-02-19T18:11:34.122Z,4.90
2019-02-19T18:14:54.273Z,5.17
2019-02-19T18:18:11.714Z,5.73
2019-02-19T18:21:13.715Z,5.08
2019-02-19T18:24:15.625Z,5.30
2019-02-19T18:27:17.525Z,5.50
2019-02-19T18:30:19.906Z,4.72
2019-02-19T18:33:21.580Z,5.40
2019-02-19T18:36:23.581Z,5.67
2019-02-19T18:39:25.272Z,4.92
2019-02-19T18:42:26.936Z,4.73
2019-02-19T18:45:29.031Z,4.90
2019-02-19T18:48:31.712Z,5.27
2019-02-19T18:51:33.609Z,5.60
2019-02-19T18:54:35.229Z,5.37
2019-02-19T18:57:36.936Z,5.00
2019-02-19T19:00:38.868Z,4.93
2019-02-19T19:03:40.697Z,5.15
2019-02-19T19:06:44.387Z,6.00
2019-02-19T19:09:46.264Z,5.58
2019-02-19T19:12:48.403Z,5.30
2019-02-19T19:15:50.540Z,5.12
2019-02-19T19:18:52.584Z,5.20
2019-02-19T19:21:55.630Z,5.15
2019-02-19T19:24:57.329Z,5.47
2019-02-19T19:27:59.791Z,5.77
2019-02-19T19:31:01.827Z,5.17
2019-02-19T19:34:03.576Z,5.27
2019-02-19T19:37:05.619Z,5.67
2019-02-19T19:40:09.325Z,5.40
2019-02-19T19:43:11.239Z,5.20
2019-02-19T19:46:12.790Z,5.67
2019-02-19T19:49:14.612Z,6.20
2019-02-19T19:52:16.505Z,5.60
2019-02-19T19:55:18.689Z,5.90
2019-02-19T19:58:20.403Z,5.40
2019-02-19T20:01:22.542Z,5.80
2019-02-19T20:04:24.301Z,5.00
2019-02-19T20:07:26.233Z,5.57
2019-02-19T20:10:28.006Z,5.17
2019-02-19T20:16:52.134Z,4.93
2019-02-19T20:19:55.317Z,5.77
2019-02-19T20:22:57.394Z,5.03
2019-02-19T20:25:59.138Z,5.50
2019-02-19T20:29:02.752Z,5.20
2019-02-19T20:32:05.792Z,6.13
2019-02-19T20:35:08.207Z,5.70
2019-02-19T20:38:09.862Z,4.87
2019-02-19T20:41:11.514Z,5.37
2019-02-19T20:44:13.690Z,6.10
2019-02-19T20:47:18.132Z,5.07
2019-02-19T20:50:19.806Z,4.60
2019-02-19T20:53:21.496Z,4.97
2019-02-19T20:56:23.147Z,5.37
2019-02-19T20:59:24.886Z,5.27
2019-02-19T21:02:26.884Z,5.50
2019-02-19T21:05:28.618Z,5.10
2019-02-19T21:08:31.490Z,5.50
2019-02-19T21:11:33.170Z,4.70
2019-02-19T21:14:35.331Z,5.07
2019-02-19T21:17:39.414Z,5.03
2019-02-19T21:20:45.341Z,5.13
2019-02-19T21:23:50.514Z,4.57
2019-02-19T21:26:52.218Z,5.10
2019-02-19T21:29:54.943Z,4.90
2019-02-19T21:32:56.655Z,5.07
2019-02-19T21:35:58.392Z,4.77
2019-02-19T21:39:00.391Z,5.07
2019-02-19T21:42:03.833Z,5.07
2019-02-19T21:45:07.961Z,5.33
2019-02-19T21:48:14.395Z,5.23
2019-02-19T21:51:16.108Z,4.77
2019-02-19T21:54:18.147Z,4.67
2019-02-19T21:57:19.909Z,4.50
2019-02-19T22:00:22.833Z,4.43
2019-02-19T22:03:26.242Z,4.80
2019-02-19T22:06:27.958Z,5.27
2019-02-19T22:09:29.800Z,4.50
2019-02-19T22:12:33.256Z,4.40
2019-02-19T22:15:34.921Z,4.97
2019-02-19T22:18:36.674Z,4.70
2019-02-19T22:21:46.618Z,5.13
2019-02-19T22:24:48.322Z,4.80
2019-02-19T22:27:50.066Z,4.33
2019-02-19T22:30:51.805Z,4.70
2019-02-19T22:33:56.843Z,5.07
2019-02-19T22:36:58.455Z,4.70
2019-02-19T22:40:00.051Z,4.83
2019-02-19T22:43:01.939Z,5.10
2019-02-19T22:46:03.613Z,4.47
2019-02-19T22:49:05.347Z,4.90
2019-02-19T22:52:12.550Z,4.80
2019-02-19T22:55:30.936Z,4.60
2019-02-19T22:58:32.591Z,4.37
2019-02-19T23:01:40.990Z,4.03
2019-02-19T23:04:42.746Z,4.87
2019-02-19T23:07:44.555Z,4.67
2019-02-19T23:10:47.991Z,4.27
2019-02-19T23:13:52.205Z,4.33
2019-02-19T23:16:53.825Z,4.47
2019-02-19T23:19:55.499Z,4.07
2019-02-19T23:22:57.463Z,4.43
2019-02-19T23:25:59.329Z,4.10
2019-02-19T23:29:01.391Z,4.40
2019-02-19T23:32:03.513Z,4.40
2019-02-19T23:35:27.340Z,4.67
2019-02-19T23:38:33.137Z,4.20
2019-02-19T23:41:41.610Z,4.50
2019-02-19T23:44:49.372Z,4.50
2019-02-19T23:47:53.669Z,4.47
2019-02-19T23:51:02.207Z,4.00
2019-02-19T23:54:15.175Z,4.87
2019-02-19T23:57:17.453Z,5.00
